La Bruyere, Belgium
Current Conditions -  °F | °C
As of 2:20 AM on Monday 24 Nov 2014 (Local Time) from EBCI Reporting Station
Light Rain Light Rain  
Wind Chill: 46°   Ceiling: 400
Heat Index: 48°   Visibility: 6mi
Dew Point: 46°   Wind: 5mph
Humidity: 93%   Direction: 330°NNW
Pressure: 30.09"   Gusts: NA
Location:  50.39°N, 4.61°E
Report Text: EBCI 240120Z 33004KT 290V020 9999 -RA BKN004 09/08 Q1019 NOSIG
Loading
Personal Weather Stations






























Interactive Weather Map New forecast layout! Learn more

10-Day Weather Forecast

Advertisements
Track Severe Weather on mobile